Time;durP1;ratioP1;P1;durP2;ratioP2;P2;SDS_P1;SDS_P2;PMS_P1;PMS_P2;Temp;Humidity;BMP_temperature;BMP_pressure;BME280_temperature;BME280_humidity;BME280_pressure;Samples;Min_cycle;Max_cycle;Signal;HPM_P1;HPM_P2
2023/12/05 00:00:00;;;;;;;8.45;6.70;;;;;;;1.54;100.00;62151.38;5024853;28;20467;-75
2023/12/05 00:02:27;;;;;;;11.18;6.97;;;;;;;1.64;100.00;62169.16;5024722;28;20250;-76
2023/12/05 00:04:54;;;;;;;10.77;7.05;;;;;;;1.64;100.00;62169.16;5025321;28;20221;-75
2023/12/05 00:07:23;;;;;;;8.48;6.35;;;;;;;1.76;100.00;62178.97;5021151;28;20301;-76
2023/12/05 00:09:50;;;;;;;9.60;6.57;;;;;;;1.86;100.00;62191.75;5026947;28;20226;-75
2023/12/05 00:12:17;;;;;;;8.23;6.57;;;;;;;1.92;100.00;62197.38;5024936;28;20476;-75
2023/12/05 00:14:45;;;;;;;7.60;6.63;;;;;;;2.01;100.00;62206.63;5014409;28;20229;-75
2023/12/05 00:17:12;;;;;;;8.63;6.25;;;;;;;2.14;100.00;62219.97;5011485;28;20298;-75
2023/12/05 00:19:39;;;;;;;9.98;7.03;;;;;;;2.11;100.00;62216.88;5012441;28;20225;-76
2023/12/05 00:22:06;;;;;;;9.65;6.63;;;;;;;2.12;100.00;62217.94;5011884;28;20234;-74
2023/12/05 00:24:33;;;;;;;10.65;6.40;;;;;;;2.06;100.00;62214.28;5022233;28;20203;-76
2023/12/05 00:27:00;;;;;;;10.27;7.03;;;;;;;2.21;100.00;62224.66;5023564;28;20241;-76
2023/12/05 00:29:27;;;;;;;10.10;7.07;;;;;;;2.28;100.00;62232.34;5022903;28;20282;-75
2023/12/05 00:31:55;;;;;;;9.88;6.63;;;;;;;2.38;100.00;62242.13;5024791;28;20531;-75
2023/12/05 00:34:22;;;;;;;7.85;6.13;;;;;;;2.35;100.00;62244.03;5022286;28;20198;-75
2023/12/05 00:36:49;;;;;;;7.45;6.35;;;;;;;2.38;100.00;62241.59;5014609;28;20218;-77
2023/12/05 00:39:16;;;;;;;8.63;6.47;;;;;;;2.41;100.00;62247.19;5025120;28;20226;-76
2023/12/05 00:41:43;;;;;;;10.63;7.40;;;;;;;2.48;100.00;62251.88;5024432;28;20233;-76
2023/12/05 00:44:10;;;;;;;10.23;7.10;;;;;;;2.58;100.00;62262.13;5022212;28;20244;-76
2023/12/05 00:46:37;;;;;;;7.32;6.18;;;;;;;2.64;100.00;62268.31;5022543;28;20273;-76
2023/12/05 00:49:06;;;;;;;6.80;5.22;;;;;;;2.57;100.00;62264.16;5024128;28;20218;-76
2023/12/05 00:51:33;;;;;;;9.40;6.60;;;;;;;2.49;100.00;62258.44;5024207;28;20206;-75
2023/12/05 00:54:00;;;;;;;8.15;5.88;;;;;;;2.38;100.00;62249.66;5018702;28;20202;-77
2023/12/05 00:56:27;;;;;;;7.15;6.30;;;;;;;2.33;100.00;62237.50;5023569;28;20201;-75
2023/12/05 00:58:54;;;;;;;10.07;6.78;;;;;;;2.38;100.00;62247.16;5023995;28;20282;-75
2023/12/05 01:01:21;;;;;;;6.55;5.80;;;;;;;2.47;100.00;62253.38;5019648;28;20199;-75
2023/12/05 01:03:51;;;;;;;7.72;6.82;;;;;;;2.45;100.00;62248.78;5023326;28;20496;-74
2023/12/05 01:06:19;;;;;;;8.13;6.43;;;;;;;2.46;100.00;62252.84;5021824;28;20223;-75
2023/12/05 01:08:46;;;;;;;6.88;6.18;;;;;;;2.34;100.00;62238.53;5023699;28;20206;-75
2023/12/05 01:11:13;;;;;;;8.63;6.55;;;;;;;2.43;100.00;62252.28;5023278;28;20209;-75
2023/12/05 01:13:40;;;;;;;7.28;6.05;;;;;;;2.45;100.00;62253.81;5012697;28;20223;-75
2023/12/05 01:16:08;;;;;;;10.98;6.35;;;;;;;2.35;100.00;62242.06;5010973;28;20504;-76
2023/12/05 01:18:35;;;;;;;10.20;6.40;;;;;;;2.25;100.00;62228.75;5015187;28;20242;-75
2023/12/05 01:21:02;;;;;;;8.93;6.30;;;;;;;2.27;100.00;62233.84;5023429;28;20203;-76
2023/12/05 01:23:31;;;;;;;8.40;6.20;;;;;;;2.04;100.00;62212.72;5022018;28;20242;-76
2023/12/05 01:25:58;;;;;;;8.07;6.20;;;;;;;2.00;100.00;62200.59;5023998;28;20206;-76
2023/12/05 01:28:25;;;;;;;7.25;6.50;;;;;;;1.98;100.00;62206.56;5023814;28;20265;-76
2023/12/05 01:30:52;;;;;;;11.10;6.57;;;;;;;2.09;100.00;62214.84;5021441;28;20273;-76
2023/12/05 01:33:19;;;;;;;9.38;6.75;;;;;;;2.01;100.00;62204.63;5023680;28;20532;-77
2023/12/05 01:35:46;;;;;;;9.30;7.20;;;;;;;1.90;100.00;62195.31;5022938;28;20203;-77
2023/12/05 01:38:13;;;;;;;7.90;6.65;;;;;;;1.82;100.00;62192.13;5023630;28;20226;-77
2023/12/05 01:40:42;;;;;;;7.85;6.63;;;;;;;1.85;100.00;62190.19;5015252;28;20205;-75
2023/12/05 01:43:09;;;;;;;9.38;7.03;;;;;;;1.92;100.00;62197.91;5023010;28;20289;-76
2023/12/05 01:45:36;;;;;;;9.10;7.15;;;;;;;1.88;100.00;62191.28;5023695;28;20237;-76
2023/12/05 01:48:06;;;;;;;8.32;7.10;;;;;;;1.90;100.00;62192.81;5023474;28;20305;-76
2023/12/05 01:50:35;;;;;;;13.48;7.10;;;;;;;1.94;100.00;62202.47;5021645;28;20499;-76
2023/12/05 01:53:05;;;;;;;9.88;7.65;;;;;;;1.95;100.00;62197.97;5022027;28;20345;-75
2023/12/05 01:55:33;;;;;;;9.07;6.80;;;;;;;1.98;100.00;62201.03;5023948;28;20199;-76
2023/12/05 01:58:02;;;;;;;10.38;7.90;;;;;;;1.96;100.00;62204.53;5022970;28;20273;-74
2023/12/05 02:00:30;;;;;;;9.88;6.75;;;;;;;2.04;100.00;62209.69;5017396;28;20207;-76
2023/12/05 02:02:57;;;;;;;9.40;7.47;;;;;;;2.11;100.00;62212.38;5023668;28;20226;-76
2023/12/05 02:05:25;;;;;;;10.10;7.88;;;;;;;1.97;100.00;62200.00;5023209;28;20223;-75
2023/12/05 02:07:54;;;;;;;8.70;6.95;;;;;;;2.08;100.00;62211.31;5005632;28;20238;-75
2023/12/05 02:10:23;;;;;;;12.00;7.20;;;;;;;2.00;100.00;62208.13;5017628;28;20292;-76
2023/12/05 02:12:50;;;;;;;11.65;7.72;;;;;;;2.00;100.00;62210.63;5021016;28;20277;-75
2023/12/05 02:15:19;;;;;;;9.43;7.28;;;;;;;2.03;100.00;62206.69;5023676;28;20198;-75
2023/12/05 02:17:58;;;;;;;12.43;7.40;;;;;;;2.15;100.00;62219.00;5019984;28;20252;-74
2023/12/05 02:20:32;;;;;;;13.27;8.00;;;;;;;2.23;100.00;62224.72;5023848;28;20190;-76
2023/12/05 02:23:27;;;;;;;11.63;8.20;;;;;;;2.16;100.00;62219.50;5023438;28;20490;-75
2023/12/05 02:26:08;;;;;;;10.75;8.20;;;;;;;2.15;100.00;62224.03;5020267;28;20271;-75
2023/12/05 02:28:37;;;;;;;9.98;8.23;;;;;;;1.93;100.00;62196.41;5014994;28;20282;-75
2023/12/05 02:31:05;;;;;;;14.05;8.75;;;;;;;2.00;100.00;62206.09;5022364;28;20226;-76
2023/12/05 02:33:32;;;;;;;10.43;8.52;;;;;;;1.95;100.00;62200.47;5023242;28;20238;-75
2023/12/05 02:36:07;;;;;;;11.20;8.93;;;;;;;1.87;100.00;62190.25;5022044;28;20431;-75
2023/12/05 02:38:41;;;;;;;12.32;8.63;;;;;;;1.82;100.00;62185.13;5024001;28;20268;-75
2023/12/05 02:41:14;;;;;;;16.13;8.43;;;;;;;1.93;100.00;62198.91;5023394;28;20209;-75
2023/12/05 02:43:47;;;;;;;12.82;8.38;;;;;;;1.94;100.00;62201.94;5021795;28;20222;-75
2023/12/05 02:46:17;;;;;;;9.95;8.20;;;;;;;1.92;100.00;62195.38;5023949;28;20199;-76
2023/12/05 02:48:45;;;;;;;12.85;8.73;;;;;;;1.85;100.00;62188.19;5026778;28;20214;-75
2023/12/05 02:51:12;;;;;;;10.20;7.40;;;;;;;1.88;100.00;62195.78;5025448;28;20498;-75
2023/12/05 02:53:39;;;;;;;7.85;6.70;;;;;;;1.97;100.00;62202.50;5025724;28;20222;-74
2023/12/05 02:56:07;;;;;;;8.63;7.50;;;;;;;1.84;100.00;62189.16;5027611;28;20457;-77
2023/12/05 02:58:34;;;;;;;9.30;6.85;;;;;;;1.69;100.00;62169.25;5032099;28;20231;-76
2023/12/05 03:01:03;;;;;;;12.38;7.30;;;;;;;1.78;100.00;62181.00;5028506;28;20551;-77
2023/12/05 03:03:30;;;;;;;13.18;7.97;;;;;;;1.76;100.00;62181.47;5025277;28;20229;-76
2023/12/05 03:05:57;;;;;;;10.55;7.25;;;;;;;1.87;100.00;62189.75;5024695;28;20206;-76
2023/12/05 03:08:24;;;;;;;9.90;7.30;;;;;;;1.75;100.00;62174.91;5029658;28;20288;-75
2023/12/05 03:10:51;;;;;;;9.30;7.72;;;;;;;1.67;100.00;62171.72;5026002;28;20259;-75
2023/12/05 03:13:18;;;;;;;12.38;6.85;;;;;;;1.60;100.00;62162.53;5026594;28;20250;-76
2023/12/05 03:15:45;;;;;;;11.43;8.05;;;;;;;1.64;100.00;62164.13;5026423;28;20487;-76
2023/12/05 03:18:13;;;;;;;11.15;7.97;;;;;;;1.71;100.00;62175.84;5021982;28;20553;-76
2023/12/05 03:20:40;;;;;;;9.98;7.38;;;;;;;1.71;100.00;62176.34;5018740;28;20203;-76
2023/12/05 03:23:07;;;;;;;10.60;7.63;;;;;;;1.65;100.00;62167.16;5026821;28;20260;-76
2023/12/05 03:25:34;;;;;;;9.43;7.38;;;;;;;1.68;100.00;62173.25;5026722;28;20210;-76
2023/12/05 03:28:01;;;;;;;7.07;6.30;;;;;;;1.72;100.00;62174.88;5025264;28;20266;-75
2023/12/05 03:30:28;;;;;;;8.90;6.70;;;;;;;1.67;100.00;62172.25;5014763;28;20233;-75
2023/12/05 03:32:55;;;;;;;9.90;6.57;;;;;;;1.68;100.00;62170.75;5025887;28;20528;-77
2023/12/05 03:35:24;;;;;;;7.00;5.45;;;;;;;1.72;100.00;62176.84;5026380;28;20262;-75
2023/12/05 03:37:51;;;;;;;12.43;7.35;;;;;;;1.64;100.00;62166.63;5020789;28;20235;-76
2023/12/05 03:40:18;;;;;;;5.65;5.20;;;;;;;1.72;100.00;62174.88;5024525;28;20210;-77
2023/12/05 03:42:45;;;;;;;6.38;5.68;;;;;;;1.68;100.00;62170.22;5026368;28;20261;-76
2023/12/05 03:45:11;;;;;;;7.90;5.68;;;;;;;1.83;100.00;62190.66;5026424;28;20209;-77
2023/12/05 03:47:38;;;;;;;7.20;6.45;;;;;;;1.88;100.00;62193.28;5022433;28;20251;-77
2023/12/05 03:50:06;;;;;;;6.93;5.93;;;;;;;1.80;100.00;62188.09;5025487;28;20249;-77
2023/12/05 03:52:35;;;;;;;6.50;5.85;;;;;;;1.79;100.00;62184.56;5025455;28;20222;-77
2023/12/05 03:55:02;;;;;;;5.45;4.95;;;;;;;1.71;100.00;62175.84;5025802;28;20202;-76
2023/12/05 03:57:29;;;;;;;6.05;5.43;;;;;;;1.88;100.00;62190.78;5023714;28;20247;-77
2023/12/05 03:59:56;;;;;;;5.63;5.03;;;;;;;2.03;100.00;62206.16;5026539;28;20202;-76
2023/12/05 04:02:23;;;;;;;5.80;5.22;;;;;;;1.92;100.00;62195.38;5025745;28;20245;-77
2023/12/05 04:04:49;;;;;;;7.40;5.53;;;;;;;2.07;100.00;62207.78;5023912;28;20391;-76
2023/12/05 04:07:16;;;;;;;7.28;5.53;;;;;;;2.04;100.00;62202.16;5020002;28;20523;-75
2023/12/05 04:09:46;;;;;;;10.60;5.47;;;;;;;2.09;100.00;62214.84;5017935;28;20210;-76
2023/12/05 04:12:13;;;;;;;7.20;6.07;;;;;;;2.05;100.00;62211.25;5025801;28;20570;-76
2023/12/05 04:14:40;;;;;;;8.18;5.93;;;;;;;2.16;100.00;62224.53;5019806;28;20191;-76
2023/12/05 04:17:08;;;;;;;8.13;6.60;;;;;;;2.19;100.00;62228.13;5023716;28;20442;-74
2023/12/05 04:19:35;;;;;;;10.60;7.95;;;;;;;1.87;100.00;62192.75;5025249;28;20199;-76
2023/12/05 04:22:01;;;;;;;14.15;7.97;;;;;;;1.95;100.00;62200.47;5023393;28;20241;-76
2023/12/05 04:24:28;;;;;;;13.43;9.48;;;;;;;2.06;100.00;62212.28;5024821;28;20236;-75
2023/12/05 04:26:57;;;;;;;12.73;9.13;;;;;;;1.93;100.00;62196.41;5024745;28;20289;-75
2023/12/05 04:29:24;;;;;;;18.02;10.23;;;;;;;1.99;100.00;62202.06;5026277;28;20499;-79
2023/12/05 04:31:51;;;;;;;13.55;9.13;;;;;;;2.04;100.00;62212.72;5028831;28;20230;-75
2023/12/05 04:34:18;;;;;;;15.93;9.27;;;;;;;2.07;100.00;62213.28;5025470;28;20504;-76
2023/12/05 04:36:47;;;;;;;17.17;10.20;;;;;;;1.91;100.00;62194.38;5025133;28;20227;-75
2023/12/05 04:39:15;;;;;;;12.00;9.15;;;;;;;1.98;100.00;62196.53;5024323;28;20211;-75
2023/12/05 04:41:42;;;;;;;12.90;9.48;;;;;;;2.04;100.00;62210.22;5023563;28;20241;-77
2023/12/05 04:44:10;;;;;;;13.13;9.45;;;;;;;2.15;100.00;62223.50;5025863;28;20241;-76
2023/12/05 04:46:38;;;;;;;12.70;9.38;;;;;;;2.21;100.00;62224.66;5023310;28;20225;-77
2023/12/05 04:49:05;;;;;;;14.80;9.00;;;;;;;2.23;100.00;62229.72;5013218;28;20380;-75
2023/12/05 04:51:32;;;;;;;17.83;11.73;;;;;;;2.29;100.00;62232.88;5025000;28;20202;-76
2023/12/05 04:53:59;;;;;;;17.27;10.65;;;;;;;2.34;100.00;62238.00;5022697;28;20209;-76
2023/12/05 04:56:27;;;;;;;17.70;11.38;;;;;;;2.28;100.00;62231.84;5016229;28;20210;-75
2023/12/05 04:58:54;;;;;;;16.40;10.05;;;;;;;2.32;100.00;62233.97;5024160;28;20203;-76
2023/12/05 05:01:22;;;;;;;15.57;9.23;;;;;;;2.30;100.00;62231.38;5021245;28;20395;-76
2023/12/05 05:03:49;;;;;;;12.88;8.68;;;;;;;2.29;100.00;62235.91;5016728;28;20203;-77
2023/12/05 05:06:16;;;;;;;8.27;6.90;;;;;;;2.31;100.00;62232.91;5006819;28;20211;-75
2023/12/05 05:08:43;;;;;;;6.85;5.93;;;;;;;2.30;100.00;62239.44;5021771;28;20305;-75
2023/12/05 05:11:10;;;;;;;8.25;5.55;;;;;;;2.28;100.00;62234.88;5021238;28;20213;-76
2023/12/05 05:13:37;;;;;;;7.35;6.47;;;;;;;2.25;100.00;62231.78;5018028;28;20219;-75
2023/12/05 05:16:07;;;;;;;7.47;5.72;;;;;;;2.04;100.00;62207.72;5011126;28;20282;-76
2023/12/05 05:18:37;;;;;;;5.97;5.15;;;;;;;2.12;100.00;62217.94;5018793;28;20235;-76
2023/12/05 05:21:05;;;;;;;6.65;5.78;;;;;;;2.10;100.00;62218.38;5020077;28;20309;-77
2023/12/05 05:23:32;;;;;;;6.05;5.47;;;;;;;2.09;100.00;62217.88;5022646;28;20257;-77
2023/12/05 05:25:59;;;;;;;5.03;4.60;;;;;;;2.14;100.00;62217.97;5024045;28;20197;-76
2023/12/05 05:28:26;;;;;;;6.15;4.72;;;;;;;2.11;100.00;62219.91;5022132;28;20324;-76
2023/12/05 05:30:54;;;;;;;7.28;5.78;;;;;;;2.08;100.00;62211.31;5023451;28;20217;-76
2023/12/05 05:33:21;;;;;;;5.90;5.38;;;;;;;2.01;100.00;62204.13;5024688;28;20289;-76
2023/12/05 05:35:49;;;;;;;5.65;5.05;;;;;;;2.04;100.00;62209.69;5013170;28;20367;-76
2023/12/05 05:38:17;;;;;;;8.15;5.70;;;;;;;2.04;100.00;62209.69;5022590;28;20229;-76
2023/12/05 05:40:44;;;;;;;7.82;5.45;;;;;;;1.86;100.00;62186.72;5024371;28;20207;-77
2023/12/05 05:43:11;;;;;;;9.35;5.45;;;;;;;1.89;100.00;62189.81;5024183;28;20445;-75
2023/12/05 05:45:38;;;;;;;7.18;5.57;;;;;;;1.91;100.00;62199.38;5024186;28;20220;-77
2023/12/05 05:48:06;;;;;;;7.50;5.40;;;;;;;1.96;100.00;62207.03;5022516;28;20258;-77
2023/12/05 05:50:32;;;;;;;9.40;5.28;;;;;;;1.88;100.00;62193.28;5019732;28;20222;-77
2023/12/05 05:53:01;;;;;;;5.30;4.80;;;;;;;1.88;100.00;62195.78;5022026;28;20225;-75
2023/12/05 05:55:28;;;;;;;8.68;5.30;;;;;;;2.00;100.00;62203.09;5018938;28;20266;-75
2023/12/05 05:57:57;;;;;;;8.98;5.57;;;;;;;2.09;100.00;62217.88;5020314;28;20222;-76
2023/12/05 06:00:24;;;;;;;5.47;4.95;;;;;;;2.04;100.00;62209.69;5023145;28;20268;-76
2023/12/05 06:02:51;;;;;;;6.63;4.53;;;;;;;2.03;100.00;62206.69;5022972;28;20227;-75
2023/12/05 06:05:18;;;;;;;6.32;4.82;;;;;;;1.87;100.00;62192.25;5014615;28;20211;-74
2023/12/05 06:07:45;;;;;;;6.70;4.38;;;;;;;1.85;100.00;62188.19;5022113;28;20242;-75
2023/12/05 06:10:14;;;;;;;6.70;5.22;;;;;;;1.84;100.00;62184.66;5021532;28;20528;-75
2023/12/05 06:12:41;;;;;;;7.90;4.63;;;;;;;1.94;100.00;62197.44;5021501;28;20215;-75
2023/12/05 06:15:08;;;;;;;11.65;5.10;;;;;;;1.93;100.00;62198.91;5021265;28;20213;-77
2023/12/05 06:17:35;;;;;;;6.43;5.00;;;;;;;1.86;100.00;62188.72;5022184;28;20214;-76
2023/12/05 06:20:02;;;;;;;7.97;4.97;;;;;;;1.82;100.00;62185.13;5021190;28;20517;-76
2023/12/05 06:22:32;;;;;;;28.27;16.92;;;;;;;1.85;100.00;62187.69;5021454;28;20273;-75
2023/12/05 06:24:59;;;;;;;7.90;4.88;;;;;;;1.75;100.00;62179.94;5020972;28;20423;-74
2023/12/05 06:27:27;;;;;;;4.78;4.28;;;;;;;1.83;100.00;62188.66;5026186;28;20241;-75
2023/12/05 06:29:54;;;;;;;6.03;4.30;;;;;;;1.82;100.00;62187.13;5025490;28;20286;-75
2023/12/05 06:32:21;;;;;;;9.02;4.50;;;;;;;1.83;100.00;62190.66;5022138;28;20371;-76
2023/12/05 06:34:48;;;;;;;5.05;4.30;;;;;;;1.76;100.00;62178.97;5025547;28;20274;-75
2023/12/05 06:37:15;;;;;;;4.63;4.13;;;;;;;1.83;100.00;62190.66;5024383;28;20222;-75
2023/12/05 06:39:42;;;;;;;5.13;4.40;;;;;;;1.75;100.00;62179.94;5023061;28;20214;-75
2023/12/05 06:42:09;;;;;;;7.63;4.45;;;;;;;1.92;100.00;62192.34;5025490;28;20218;-76
2023/12/05 06:44:37;;;;;;;7.80;4.68;;;;;;;2.01;100.00;62209.66;5025501;28;20199;-75
2023/12/05 06:47:05;;;;;;;10.07;6.57;;;;;;;2.01;100.00;62209.13;5024935;28;20211;-75
2023/12/05 06:49:31;;;;;;;11.38;6.25;;;;;;;1.90;100.00;62190.31;5023280;28;20601;-77
2023/12/05 06:52:00;;;;;;;17.58;10.60;;;;;;;1.69;100.00;62173.78;5024660;28;20237;-75
2023/12/05 06:54:27;;;;;;;15.63;10.30;;;;;;;1.79;100.00;62184.56;5025811;28;20796;-76
2023/12/05 06:56:55;;;;;;;17.20;10.40;;;;;;;1.82;100.00;62187.63;5025497;28;20249;-76
2023/12/05 06:59:22;;;;;;;17.25;10.30;;;;;;;1.64;100.00;62166.63;5023794;28;20264;-76
2023/12/05 07:01:50;;;;;;;15.27;10.27;;;;;;;1.82;100.00;62187.63;5023287;28;20281;-76
2023/12/05 07:04:18;;;;;;;17.05;11.40;;;;;;;1.86;100.00;62186.72;5025072;28;20199;-75
2023/12/05 07:06:45;;;;;;;14.50;9.75;;;;;;;2.03;100.00;62208.69;5022186;28;20531;-76
2023/12/05 07:09:12;;;;;;;15.65;10.57;;;;;;;2.26;100.00;62230.28;5024503;28;20226;-75
2023/12/05 07:11:39;;;;;;;19.60;10.85;;;;;;;2.51;100.00;62255.47;5025408;28;20227;-76
2023/12/05 07:14:08;;;;;;;21.52;10.23;;;;;;;2.69;100.00;62279.00;5022368;28;20270;-75
2023/12/05 07:16:36;;;;;;;19.20;11.80;;;;;;;2.67;100.00;62274.41;5022985;28;20206;-77
2023/12/05 07:19:04;;;;;;;23.58;13.38;;;;;;;2.86;100.00;62293.44;5022921;28;20221;-75
2023/12/05 07:21:31;;;;;;;24.10;11.88;;;;;;;2.76;100.00;62285.66;5024974;28;20253;-76
2023/12/05 07:23:58;;;;;;;16.73;11.32;;;;;;;2.94;100.00;62304.69;5019108;28;20239;-76
2023/12/05 07:26:25;;;;;;;16.17;10.45;;;;;;;2.93;100.00;62303.66;5025249;28;20224;-75
2023/12/05 07:28:52;;;;;;;15.02;10.02;;;;;;;3.08;100.00;62311.53;5024858;28;20257;-76
2023/12/05 07:31:19;;;;;;;13.00;9.32;;;;;;;3.08;100.00;62311.53;5015226;28;20501;-75
2023/12/05 07:33:46;;;;;;;16.52;9.70;;;;;;;2.99;100.00;62304.25;5005624;28;20214;-76
2023/12/05 07:36:15;;;;;;;14.43;9.27;;;;;;;3.09;100.00;62320.09;5006057;28;20211;-76
2023/12/05 07:38:42;;;;;;;11.00;6.78;;;;;;;3.10;100.00;62320.59;5023545;28;20250;-75
2023/12/05 07:41:18;;;;;;;9.40;6.22;;;;;;;3.00;100.00;62305.31;5025818;28;20202;-75
2023/12/05 07:43:45;;;;;;;13.40;6.50;;;;;;;3.28;100.00;62339.09;5025752;28;20213;-75
2023/12/05 07:46:11;;;;;;;6.32;4.30;;;;;;;3.52;100.00;62359.25;5025733;28;20202;-76
2023/12/05 07:48:38;;;;;;;6.95;4.35;;;;;;;3.67;100.00;62376.19;5024979;28;20266;-74
2023/12/05 07:51:06;;;;;;;4.28;3.92;;;;;;;3.77;100.00;62383.94;5025721;28;20286;-75
2023/12/05 07:53:34;;;;;;;7.82;5.88;;;;;;;3.71;100.00;62378.28;5024593;28;20557;-75
2023/12/05 07:56:01;;;;;;;9.40;5.38;;;;;;;3.81;100.00;62395.63;5019226;28;20203;-74
2023/12/05 07:58:28;;;;;;;5.38;4.10;;;;;;;3.73;100.00;62382.34;5010178;28;20233;-76
2023/12/05 08:00:55;;;;;;;4.75;3.67;;;;;;;3.87;100.00;62396.75;5014307;28;20518;-75
2023/12/05 08:03:22;;;;;;;12.30;8.98;;;;;;;4.05;100.00;62418.31;5025310;28;20233;-76
2023/12/05 08:05:50;;;;;;;20.38;11.32;;;;;;;3.55;100.00;62366.88;5026269;28;20207;-77
2023/12/05 08:08:17;;;;;;;20.45;12.25;;;;;;;2.83;100.00;62290.84;5025933;28;20231;-76
2023/12/05 08:10:46;;;;;;;22.67;14.10;;;;;;;2.54;100.00;62258.03;5026106;28;20206;-75
2023/12/05 08:13:13;;;;;;;25.33;12.52;;;;;;;2.27;100.00;62235.84;5021385;28;20515;-75
2023/12/05 08:15:39;;;;;;;24.88;14.27;;;;;;;2.10;100.00;62215.88;5007807;28;20207;-76
2023/12/05 08:18:07;;;;;;;21.52;13.70;;;;;;;2.32;100.00;62235.94;5009236;28;20223;-75
2023/12/05 08:20:34;;;;;;;36.95;15.10;;;;;;;2.50;100.00;62261.97;5005984;28;20428;-75
2023/12/05 08:23:01;;;;;;;28.40;15.75;;;;;;;2.63;100.00;62269.78;5009042;28;20433;-75
2023/12/05 08:25:28;;;;;;;24.10;16.05;;;;;;;2.59;100.00;62271.22;5025951;28;20206;-74
2023/12/05 08:27:57;;;;;;;24.98;15.93;;;;;;;2.72;100.00;62279.56;5024823;28;20227;-74
2023/12/05 08:30:23;;;;;;;27.52;17.45;;;;;;;2.44;100.00;62247.75;5025225;28;20238;-75
2023/12/05 08:32:50;;;;;;;28.40;17.15;;;;;;;2.68;100.00;62269.91;5025436;28;20226;-76
2023/12/05 08:35:17;;;;;;;29.85;18.45;;;;;;;2.53;100.00;62257.53;5015824;28;20215;-74
2023/12/05 08:37:44;;;;;;;26.85;18.08;;;;;;;2.80;100.00;62287.78;5004919;28;20231;-75
2023/12/05 08:40:12;;;;;;;26.55;17.05;;;;;;;2.96;100.00;62304.22;5015271;28;20486;-75
2023/12/05 08:42:42;;;;;;;24.42;15.75;;;;;;;3.18;100.00;62326.81;5024473;28;20231;-75
2023/12/05 08:45:11;;;;;;;30.52;18.08;;;;;;;3.35;100.00;62343.78;5024822;28;20269;-76
2023/12/05 08:47:39;;;;;;;28.60;18.02;;;;;;;3.45;100.00;62354.06;5024211;28;20219;-76
2023/12/05 08:50:07;;;;;;;28.30;17.88;;;;;;;3.67;100.00;62374.19;5025231;28;20254;-76
2023/12/05 08:52:34;;;;;;;23.67;16.50;;;;;;;3.88;100.00;62395.25;5024684;28;20238;-77
2023/12/05 08:55:01;;;;;;;25.80;15.57;;;;;;;4.02;100.00;62412.19;5025227;28;20217;-75
2023/12/05 08:57:28;;;;;;;25.02;14.43;;;;;;;4.09;100.00;62419.88;5024415;28;20273;-75
2023/12/05 08:59:55;;;;;;;22.10;13.90;;;;;;;4.22;100.00;62430.75;5024964;28;20535;-75
2023/12/05 09:02:25;;;;;;;30.05;15.98;;;;;;;4.00;100.00;62408.13;5024180;28;20265;-76
2023/12/05 09:04:52;;;;;;;23.70;14.38;;;;;;;4.19;100.00;62430.19;5024704;28;20369;-75
2023/12/05 09:07:19;;;;;;;20.77;13.57;;;;;;;4.24;100.00;62434.81;5024094;28;20223;-76
2023/12/05 09:09:46;;;;;;;24.58;14.30;;;;;;;4.22;100.00;62427.72;5024640;28;20256;-75
2023/12/05 09:12:14;;;;;;;20.50;14.25;;;;;;;4.34;100.00;62442.59;5024971;28;20309;-75
2023/12/05 09:14:40;;;;;;;24.17;14.07;;;;;;;4.61;100.00;62470.38;5006463;28;20219;-77
2023/12/05 09:17:09;;;;;;;22.85;14.07;;;;;;;4.38;100.00;62446.69;5005502;28;20504;-75
2023/12/05 09:19:37;;;;;;;27.45;14.73;;;;;;;4.29;100.00;62437.44;5024242;28;20218;-75
2023/12/05 09:22:04;;;;;;;14.80;11.23;;;;;;;4.17;100.00;62425.09;5019270;28;20276;-76
2023/12/05 09:24:31;;;;;;;17.08;12.02;;;;;;;3.99;100.00;62409.09;5023839;28;20199;-75
2023/12/05 09:26:58;;;;;;;10.27;7.25;;;;;;;4.23;100.00;62434.28;5023118;28;20222;-77
2023/12/05 09:29:25;;;;;;;10.10;6.95;;;;;;;3.98;100.00;62403.53;5020929;28;20234;-75
2023/12/05 09:31:52;;;;;;;11.10;7.03;;;;;;;3.98;100.00;62406.06;5023236;28;20232;-75
2023/12/05 09:34:19;;;;;;;15.57;9.13;;;;;;;4.29;100.00;62437.44;5017892;28;20211;-75
2023/12/05 09:36:48;;;;;;;13.02;9.77;;;;;;;4.30;100.00;62446.53;5015194;28;20223;-75
2023/12/05 09:39:15;;;;;;;12.50;9.25;;;;;;;3.94;100.00;62406.47;5024052;28;20206;-74
2023/12/05 09:41:51;;;;;;;18.98;11.15;;;;;;;4.09;100.00;62424.94;5024066;28;20263;-76
2023/12/05 09:44:22;;;;;;;19.83;11.95;;;;;;;4.19;100.00;62432.72;5024521;28;20206;-77
2023/12/05 09:46:52;;;;;;;21.25;11.85;;;;;;;4.45;100.00;62454.41;5024193;28;20234;-75
2023/12/05 09:49:20;;;;;;;18.55;10.90;;;;;;;4.70;100.00;62479.63;5023872;28;20258;-76
2023/12/05 09:51:48;;;;;;;20.98;11.82;;;;;;;4.29;100.00;62437.97;5023666;28;20246;-76
2023/12/05 09:54:16;;;;;;;17.30;10.75;;;;;;;4.12;100.00;62419.94;5015935;28;20279;-75
2023/12/05 09:56:43;;;;;;;16.60;11.20;;;;;;;4.25;100.00;62435.84;5021257;28;20234;-76
2023/12/05 09:59:11;;;;;;;16.80;12.20;;;;;;;4.46;100.00;62462.50;5028088;28;20206;-76
2023/12/05 10:01:42;;;;;;;12.63;10.85;;;;;;;4.47;100.00;62463.50;5028229;28;20230;-75
2023/12/05 10:04:12;;;;;;;20.67;11.80;;;;;;;4.49;100.00;62458.53;5027566;28;20214;-75
2023/12/05 10:06:42;;;;;;;19.60;11.68;;;;;;;4.37;100.00;62448.19;5027548;28;20232;-76
2023/12/05 10:09:12;;;;;;;16.85;11.90;;;;;;;4.33;100.00;62442.06;5027645;28;20226;-76
2023/12/05 10:11:39;;;;;;;16.40;11.07;;;;;;;4.38;100.00;62452.25;5014737;28;20276;-75
2023/12/05 10:14:07;;;;;;;15.63;10.82;;;;;;;4.32;100.00;62440.53;5027537;28;20480;-75
2023/12/05 10:16:35;;;;;;;23.35;11.68;;;;;;;4.73;100.00;62485.25;5028011;28;20427;-77
2023/12/05 10:19:02;;;;;;;17.52;10.32;;;;;;;5.08;100.00;62518.75;5021437;28;20211;-75
2023/12/05 10:21:29;;;;;;;17.13;9.80;;;;;;;5.50;99.98;62564.56;5026821;28;20269;-77
2023/12/05 10:23:56;;;;;;;15.00;9.85;;;;;;;5.75;95.44;62590.31;5026873;28;20199;-77
2023/12/05 10:26:24;;;;;;;12.15;8.20;;;;;;;5.33;94.41;62549.03;5027568;28;20413;-76
2023/12/05 10:28:53;;;;;;;11.07;8.07;;;;;;;5.21;96.00;62534.16;5025065;28;20206;-75
2023/12/05 10:31:20;;;;;;;11.23;7.97;;;;;;;5.28;96.96;62541.38;5025466;28;20202;-75
2023/12/05 10:33:48;;;;;;;12.48;9.65;;;;;;;5.50;96.39;62564.03;5026444;28;20226;-76
2023/12/05 10:36:15;;;;;;;17.15;10.68;;;;;;;5.48;93.60;62564.50;5019911;28;20226;-75
2023/12/05 10:38:46;;;;;;;15.13;9.45;;;;;;;5.41;94.82;62552.22;5026762;28;20241;-75
2023/12/05 10:41:24;;;;;;;18.25;10.15;;;;;;;5.53;94.59;62567.13;5025299;28;20237;-76
2023/12/05 10:43:51;;;;;;;14.82;9.52;;;;;;;5.39;94.32;62553.22;5025853;28;20401;-76
2023/12/05 10:46:18;;;;;;;15.27;10.75;;;;;;;5.17;96.13;62527.50;5025245;28;20198;-76
2023/12/05 10:48:45;;;;;;;11.65;9.57;;;;;;;4.88;97.67;62497.66;5027294;28;20599;-76
2023/12/05 10:51:12;;;;;;;19.80;10.23;;;;;;;4.88;99.78;62500.69;5026792;28;20199;-76
2023/12/05 10:53:41;;;;;;;18.25;9.98;;;;;;;5.03;100.00;62520.66;5025733;28;20211;-77
2023/12/05 10:56:15;;;;;;;15.10;9.77;;;;;;;5.30;99.34;62540.88;5024657;28;20245;-75
2023/12/05 10:58:44;;;;;;;14.90;10.10;;;;;;;5.57;97.36;62571.75;5024843;28;20209;-76
2023/12/05 11:01:12;;;;;;;14.55;9.85;;;;;;;5.48;95.63;62559.44;5021362;28;20222;-76
2023/12/05 11:03:39;;;;;;;18.73;9.85;;;;;;;5.20;97.00;62533.13;5023319;28;21366;-76
2023/12/05 11:06:07;;;;;;;15.18;9.70;;;;;;;5.38;100.00;62552.19;5023960;28;20627;-75
2023/12/05 11:08:34;;;;;;;12.52;9.10;;;;;;;5.32;97.98;62546.00;5021688;28;20237;-75
2023/12/05 11:11:03;;;;;;;12.60;9.00;;;;;;;5.33;97.71;62549.03;5025073;28;20241;-77
2023/12/05 11:13:32;;;;;;;12.68;9.32;;;;;;;5.25;98.43;62538.78;5025626;28;20222;-76
2023/12/05 11:16:10;;;;;;;18.17;8.82;;;;;;;5.49;97.62;62563.00;5024646;28;20205;-76
2023/12/05 11:18:39;;;;;;;13.13;9.02;;;;;;;5.62;96.91;62576.38;5022740;28;20241;-76
2023/12/05 11:21:23;;;;;;;11.65;9.52;;;;;;;5.91;94.79;62603.75;5024662;28;20257;-76
2023/12/05 11:24:14;;;;;;;12.73;9.38;;;;;;;6.05;94.28;62620.19;5025278;28;20266;-76
2023/12/05 11:26:59;;;;;;;13.40;8.65;;;;;;;6.04;93.48;62619.69;5009711;28;20229;-75
2023/12/05 11:29:46;;;;;;;12.15;8.75;;;;;;;5.79;94.42;62596.44;5020120;28;20235;-75